Time;durP1;ratioP1;P1;durP2;ratioP2;P2;SDS_P1;SDS_P2;PMS_P1;PMS_P2;Temp;Humidity;BMP_temperature;BMP_pressure;BME280_temperature;BME280_humidity;BME280_pressure;Samples;Min_cycle;Max_cycle;Signal;HPM_P1;HPM_P2
2023/12/11 00:00:46;;;;;;;;;;;12.50;82.50;;;;;;4961544;28;20325;-81
2023/12/11 00:03:14;;;;;;;;;;;12.60;82.60;;;;;;4961151;28;19939;-81
2023/12/11 00:05:43;;;;;;;;;;;12.50;82.50;;;;;;4961462;28;19906;-81
2023/12/11 00:08:08;;;;;;;;;;;12.50;82.60;;;;;;4961211;28;20430;-80
2023/12/11 00:10:36;;;;;;;;;;;12.40;82.50;;;;;;4961364;28;19960;-83
2023/12/11 00:13:03;;;;;;;;;;;12.50;82.60;;;;;;4960331;28;19960;-83
2023/12/11 00:15:28;;;;;;;;;;;12.60;82.70;;;;;;4961037;28;19910;-82
2023/12/11 00:17:54;;;;;;;;;;;12.50;82.60;;;;;;4961205;28;19910;-82
2023/12/11 00:20:25;;;;;;;;;;;12.50;82.60;;;;;;4961037;28;19906;-83
2023/12/11 00:22:54;;;;;;;;;;;12.60;82.70;;;;;;4960906;28;19906;-81
2023/12/11 00:25:22;;;;;;;;;;;12.50;82.60;;;;;;4963505;28;19913;-81
2023/12/11 00:27:51;;;;;;;;;;;12.50;82.60;;;;;;4960893;28;19910;-82
2023/12/11 00:30:16;;;;;;;;;;;12.50;82.60;;;;;;4959694;28;19906;-81
2023/12/11 00:32:45;;;;;;;;;;;12.50;82.60;;;;;;4960767;28;19913;-82
2023/12/11 00:35:14;;;;;;;;;;;12.50;82.70;;;;;;4961029;28;19910;-82
2023/12/11 00:37:43;;;;;;;;;;;12.50;82.70;;;;;;4961330;28;19907;-83
2023/12/11 00:43:40;;;;;;;;;;;12.50;82.60;;;;;;4979635;28;19917;-81
2023/12/11 00:46:31;;;;;;;;;;;12.50;82.60;;;;;;4900135;29;19915;-82
2023/12/11 00:49:08;;;;;;;;;;;12.50;82.60;;;;;;4899820;29;19916;-82
2023/12/11 00:51:52;;;;;;;;;;;12.50;82.60;;;;;;4884900;29;19955;-82
2023/12/11 00:57:38;;;;;;;;;;;12.50;82.60;;;;;;4903214;29;19914;-82
2023/12/11 01:00:09;;;;;;;;;;;12.50;82.70;;;;;;4885731;29;19911;-82
2023/12/11 01:15:47;;;;;;;;;;;12.50;82.70;;;;;;4922803;29;19935;-82
2023/12/11 01:18:18;;;;;;;;;;;12.50;82.70;;;;;;4905624;29;19911;-81
2023/12/11 01:20:57;;;;;;;;;;;12.60;82.70;;;;;;4902963;29;19918;-82
2023/12/11 01:26:41;;;;;;;;;;;12.50;82.70;;;;;;4940131;29;19988;-82
2023/12/11 01:32:48;;;;;;;;;;;12.50;82.70;;;;;;4941434;29;19946;-81
2023/12/11 01:35:13;;;;;;;;;;;12.50;82.80;;;;;;4937759;29;20376;-81
2023/12/11 01:38:06;;;;;;;;;;;12.50;82.70;;;;;;4972737;28;19912;-81
2023/12/11 01:40:38;;;;;;;;;;;12.50;82.80;;;;;;4952051;28;19910;-82
2023/12/11 01:49:25;;;;;;;;;;;12.50;82.80;;;;;;4963976;28;19925;-83
2023/12/11 01:51:56;;;;;;;;;;;12.50;82.80;;;;;;4964322;28;19913;-81
2023/12/11 01:54:24;;;;;;;;;;;12.50;82.80;;;;;;4960906;28;19906;-82
2023/12/11 01:56:50;;;;;;;;;;;12.50;82.80;;;;;;4960418;28;19913;-81
2023/12/11 01:59:21;;;;;;;;;;;12.50;82.80;;;;;;4959527;28;20274;-81
2023/12/11 02:02:14;;;;;;;;;;;12.50;82.80;;;;;;4977640;28;19977;-81
2023/12/11 02:04:45;;;;;;;;;;;12.40;82.80;;;;;;4973591;28;19906;-82
2023/12/11 02:10:16;;;;;;;;;;;12.50;82.90;;;;;;4977510;28;19948;-82
2023/12/11 02:12:42;;;;;;;;;;;12.50;82.80;;;;;;4960635;28;19961;-82
2023/12/11 02:15:08;;;;;;;;;;;12.50;82.90;;;;;;4976154;28;19945;-81
2023/12/11 02:20:46;;;;;;;;;;;12.50;82.80;;;;;;4977815;28;19921;-81
2023/12/11 02:23:27;;;;;;;;;;;12.50;82.80;;;;;;4959749;28;19906;-81
2023/12/11 02:29:17;;;;;;;;;;;12.50;82.90;;;;;;4900802;29;19927;-82
2023/12/11 02:31:46;;;;;;;;;;;12.50;82.90;;;;;;4882364;29;20387;-81
2023/12/11 02:34:12;;;;;;;;;;;12.50;82.90;;;;;;4898095;29;19908;-82
2023/12/11 02:36:37;;;;;;;;;;;12.50;82.90;;;;;;4906570;28;20284;-81
2023/12/11 02:39:03;;;;;;;;;;;12.50;82.90;;;;;;4958371;28;19917;-81
2023/12/11 02:41:32;;;;;;;;;;;12.50;82.90;;;;;;4958336;28;19912;-82
2023/12/11 02:43:58;;;;;;;;;;;12.50;82.90;;;;;;4976404;28;19906;-80
2023/12/11 02:46:27;;;;;;;;;;;12.50;82.90;;;;;;4958794;28;20327;-82
2023/12/11 02:51:58;;;;;;;;;;;12.50;82.90;;;;;;4978798;28;19917;-82
2023/12/11 02:54:30;;;;;;;;;;;12.50;82.90;;;;;;4959076;28;20450;-82
2023/12/11 02:57:32;;;;;;;;;;;12.50;82.90;;;;;;4959055;28;19921;-83
2023/12/11 03:00:00;;;;;;;;;;;12.40;82.90;;;;;;4958717;28;19992;-81
2023/12/11 03:05:30;;;;;;;;;;;12.50;83.00;;;;;;4977327;28;19960;-81
2023/12/11 03:07:57;;;;;;;;;;;12.50;82.90;;;;;;4958912;28;19913;-82
2023/12/11 03:10:29;;;;;;;;;;;12.50;83.00;;;;;;4958571;28;19913;-82
2023/12/11 03:12:59;;;;;;;;;;;12.50;83.00;;;;;;4957943;28;19915;-82
2023/12/11 03:15:32;;;;;;;;;;;12.50;83.00;;;;;;4958266;28;19910;-82
2023/12/11 03:18:01;;;;;;;;;;;12.50;83.00;;;;;;4958263;28;20391;-81
2023/12/11 03:23:38;;;;;;;;;;;12.50;83.00;;;;;;4977305;28;19977;-82
2023/12/11 03:26:05;;;;;;;;;;;12.50;83.00;;;;;;4972269;28;20345;-82
2023/12/11 03:28:34;;;;;;;;;;;12.50;83.00;;;;;;4957962;28;19906;-82
2023/12/11 03:31:00;;;;;;;;;;;12.40;83.00;;;;;;4958126;28;19906;-83
2023/12/11 03:33:26;;;;;;;;;;;12.40;83.00;;;;;;4958446;28;19906;-82
2023/12/11 03:35:54;;;;;;;;;;;12.50;83.00;;;;;;4957475;28;20286;-82
2023/12/11 03:38:25;;;;;;;;;;;12.50;83.00;;;;;;4957808;28;19921;-81
2023/12/11 03:40:51;;;;;;;;;;;12.40;82.90;;;;;;4957624;28;20392;-81
2023/12/11 03:46:42;;;;;;;;;;;12.50;83.00;;;;;;4976801;28;20378;-82
2023/12/11 03:49:23;;;;;;;;;;;12.40;82.90;;;;;;4960434;28;20520;-82
2023/12/11 03:55:13;;;;;;;;;;;12.70;83.20;;;;;;4996641;28;19932;-81
2023/12/11 03:57:41;;;;;;;;;;;12.40;83.00;;;;;;4953640;29;19922;-82
2023/12/11 04:00:07;;;;;;;;;;;12.50;83.10;;;;;;4953144;29;19911;-81
2023/12/11 04:02:36;;;;;;;;;;;12.50;83.10;;;;;;4953321;28;19929;-81
2023/12/11 04:05:01;;;;;;;;;;;12.50;83.10;;;;;;4953431;29;20343;-82
2023/12/11 04:07:29;;;;;;;;;;;12.40;83.10;;;;;;4936988;29;19914;-81
2023/12/11 04:09:57;;;;;;;;;;;12.40;83.00;;;;;;4937574;29;20427;-82
2023/12/11 04:12:50;;;;;;;;;;;12.40;83.00;;;;;;4934264;29;20036;-83
2023/12/11 04:15:22;;;;;;;;;;;12.40;83.10;;;;;;4952837;29;19910;-82
2023/12/11 04:20:55;;;;;;;;;;;12.40;83.10;;;;;;4956099;29;19965;-83
2023/12/11 04:23:35;;;;;;;;;;;12.50;83.20;;;;;;4939609;29;19922;-81
2023/12/11 04:26:17;;;;;;;;;;;12.40;83.10;;;;;;4937478;29;19913;-82
2023/12/11 04:29:18;;;;;;;;;;;12.40;83.20;;;;;;4943026;28;20752;-83
2023/12/11 04:31:54;;;;;;;;;;;12.40;83.10;;;;;;4973522;28;19913;-82
2023/12/11 04:34:27;;;;;;;;;;;12.30;83.10;;;;;;4955413;28;20007;-82
2023/12/11 04:36:58;;;;;;;;;;;12.40;83.10;;;;;;4955114;28;20025;-81
2023/12/11 04:39:26;;;;;;;;;;;12.40;83.20;;;;;;4958170;28;19961;-80
2023/12/11 04:41:53;;;;;;;;;;;12.40;83.20;;;;;;4958897;28;19910;-82
2023/12/11 04:44:22;;;;;;;;;;;12.50;83.20;;;;;;4958720;28;20486;-81
2023/12/11 04:46:48;;;;;;;;;;;13.30;83.70;;;;;;4959356;28;19917;-81
2023/12/11 04:49:14;;;;;;;;;;;12.40;83.20;;;;;;4958255;28;20065;-82
2023/12/11 04:51:42;;;;;;;;;;;12.40;83.20;;;;;;4958709;28;19973;-82
2023/12/11 04:54:07;;;;;;;;;;;12.40;83.20;;;;;;4958261;28;19916;-82
2023/12/11 04:56:39;;;;;;;;;;;12.40;83.20;;;;;;4957795;28;19917;-81
2023/12/11 04:59:04;;;;;;;;;;;12.40;83.20;;;;;;4975038;28;20015;-82
2023/12/11 05:01:30;;;;;;;;;;;12.40;83.20;;;;;;4957964;28;19938;-81
2023/12/11 05:03:55;;;;;;;;;;;12.40;83.40;;;;;;4956941;28;20458;-80
2023/12/11 05:06:20;;;;;;;;;;;12.80;83.40;;;;;;4957154;28;19910;-80
2023/12/11 05:08:46;;;;;;;;;;;12.40;83.20;;;;;;4958198;28;19907;-80
2023/12/11 05:11:11;;;;;;;;;;;12.40;83.20;;;;;;4976640;28;19906;-82
2023/12/11 05:13:37;;;;;;;;;;;12.40;83.30;;;;;;4959027;28;19917;-82
2023/12/11 05:16:02;;;;;;;;;;;12.40;83.30;;;;;;4957379;28;20008;-84
2023/12/11 05:18:28;;;;;;;;;;;12.40;83.30;;;;;;4955613;28;20589;-79
2023/12/11 05:20:53;;;;;;;;;;;12.40;83.30;;;;;;4956062;28;19941;-81
2023/12/11 05:23:19;;;;;;;;;;;12.40;83.30;;;;;;4955818;28;19910;-81
2023/12/11 05:25:45;;;;;;;;;;;12.40;83.30;;;;;;4955756;28;19906;-80
2023/12/11 05:28:12;;;;;;;;;;;12.40;83.30;;;;;;4956042;28;19942;-80
2023/12/11 05:30:40;;;;;;;;;;;12.40;83.30;;;;;;4955863;28;19917;-81
2023/12/11 05:33:06;;;;;;;;;;;12.40;83.30;;;;;;4970663;28;19984;-80
2023/12/11 05:35:34;;;;;;;;;;;12.40;83.30;;;;;;4939739;28;20374;-80
2023/12/11 05:38:00;;;;;;;;;;;12.40;83.30;;;;;;4955495;28;19906;-80
2023/12/11 05:40:25;;;;;;;;;;;12.40;83.30;;;;;;4955904;28;19914;-81
2023/12/11 05:42:52;;;;;;;;;;;12.40;83.30;;;;;;4955697;28;19906;-81
2023/12/11 05:45:18;;;;;;;;;;;12.40;83.40;;;;;;4955332;28;19910;-81
2023/12/11 05:47:44;;;;;;;;;;;12.40;83.40;;;;;;4955877;28;20260;-81
2023/12/11 05:50:12;;;;;;;;;;;12.40;83.30;;;;;;4969511;28;19910;-80
2023/12/11 05:52:40;;;;;;;;;;;12.40;83.40;;;;;;4971675;28;19917;-81
2023/12/11 05:55:09;;;;;;;;;;;12.40;83.40;;;;;;4972939;28;20270;-81
2023/12/11 05:57:37;;;;;;;;;;;12.40;83.40;;;;;;4954001;28;20370;-79
2023/12/11 06:00:03;;;;;;;;;;;12.40;83.40;;;;;;4954777;28;19914;-81
2023/12/11 06:02:29;;;;;;;;;;;12.40;83.40;;;;;;4955157;28;20339;-80
2023/12/11 06:04:55;;;;;;;;;;;12.40;83.50;;;;;;4955298;28;19914;-81
2023/12/11 06:07:21;;;;;;;;;;;12.40;83.50;;;;;;4955202;28;19906;-82
2023/12/11 06:09:48;;;;;;;;;;;12.40;83.40;;;;;;4938890;28;19921;-81
2023/12/11 06:12:14;;;;;;;;;;;12.40;83.40;;;;;;4939097;28;19936;-80
2023/12/11 06:14:40;;;;;;;;;;;12.40;83.40;;;;;;4955484;28;19910;-81
2023/12/11 06:17:05;;;;;;;;;;;12.40;83.40;;;;;;4972591;28;19906;-81
2023/12/11 06:19:31;;;;;;;;;;;12.40;83.40;;;;;;4955057;28;19910;-81
2023/12/11 06:22:01;;;;;;;;;;;12.40;83.40;;;;;;4939070;28;19917;-81
2023/12/11 06:24:28;;;;;;;;;;;12.40;83.40;;;;;;4972406;28;20049;-79
2023/12/11 06:26:53;;;;;;;;;;;12.40;83.40;;;;;;4953918;28;20092;-80
2023/12/11 06:29:19;;;;;;;;;;;12.40;83.40;;;;;;4954899;28;20369;-80
2023/12/11 06:31:44;;;;;;;;;;;12.30;83.40;;;;;;4954724;28;20438;-80
2023/12/11 06:34:10;;;;;;;;;;;12.40;83.50;;;;;;4954357;28;20271;-79
2023/12/11 06:36:35;;;;;;;;;;;12.40;83.40;;;;;;4954566;28;20008;-81
2023/12/11 06:39:01;;;;;;;;;;;12.40;83.50;;;;;;4954409;28;20462;-79
2023/12/11 06:41:26;;;;;;;;;;;12.40;83.40;;;;;;4971754;28;19996;-81
2023/12/11 06:43:53;;;;;;;;;;;12.40;83.40;;;;;;4954592;28;20013;-80
2023/12/11 06:46:18;;;;;;;;;;;12.40;83.40;;;;;;4954734;28;19914;-81
2023/12/11 06:48:44;;;;;;;;;;;12.40;83.40;;;;;;4954027;28;19910;-81
2023/12/11 06:51:09;;;;;;;;;;;12.40;83.40;;;;;;4954195;28;19910;-81
2023/12/11 06:53:35;;;;;;;;;;;12.40;83.50;;;;;;4954449;28;20370;-81
2023/12/11 06:56:00;;;;;;;;;;;12.60;83.60;;;;;;4954238;28;20410;-81
2023/12/11 06:58:26;;;;;;;;;;;12.40;83.40;;;;;;4953961;28;19914;-81
2023/12/11 07:00:51;;;;;;;;;;;12.40;84.00;;;;;;4971055;28;19917;-80
2023/12/11 07:03:17;;;;;;;;;;;12.40;83.50;;;;;;4954724;28;19913;-80
2023/12/11 07:05:43;;;;;;;;;;;12.40;83.50;;;;;;4954263;28;19930;-80
2023/12/11 07:08:08;;;;;;;;;;;12.40;83.40;;;;;;4954127;28;20338;-81
2023/12/11 07:10:34;;;;;;;;;;;12.40;83.50;;;;;;4954043;28;19910;-79
2023/12/11 07:12:59;;;;;;;;;;;12.40;83.50;;;;;;4954444;28;19953;-81
2023/12/11 07:15:25;;;;;;;;;;;12.40;83.50;;;;;;4954207;28;19936;-81
2023/12/11 07:17:50;;;;;;;;;;;12.40;83.50;;;;;;4954042;28;19906;-81
2023/12/11 07:20:15;;;;;;;;;;;12.40;83.50;;;;;;4953811;28;19910;-80
2023/12/11 07:22:41;;;;;;;;;;;12.40;83.50;;;;;;4953980;28;19910;-80
2023/12/11 07:25:07;;;;;;;;;;;12.40;83.50;;;;;;4954129;28;19921;-81
2023/12/11 07:27:33;;;;;;;;;;;12.40;83.50;;;;;;4953676;28;20005;-81
2023/12/11 07:29:59;;;;;;;;;;;12.40;83.50;;;;;;4953840;28;19910;-80
2023/12/11 07:32:25;;;;;;;;;;;12.40;83.50;;;;;;4953724;28;19989;-80
2023/12/11 07:34:50;;;;;;;;;;;12.40;83.50;;;;;;4954068;28;19957;-80
2023/12/11 07:37:15;;;;;;;;;;;12.40;83.50;;;;;;4953625;28;19910;-80
2023/12/11 07:39:41;;;;;;;;;;;12.40;83.60;;;;;;4953863;28;20379;-81
2023/12/11 07:42:06;;;;;;;;;;;12.40;83.50;;;;;;4954038;28;19910;-80
2023/12/11 07:44:32;;;;;;;;;;;12.40;83.60;;;;;;4953984;28;20294;-80
2023/12/11 07:46:57;;;;;;;;;;;12.30;83.50;;;;;;4953707;28;19917;-81
2023/12/11 07:49:23;;;;;;;;;;;12.40;83.60;;;;;;4953809;28;19910;-80
2023/12/11 07:51:48;;;;;;;;;;;12.40;83.60;;;;;;4952790;28;19964;-81
2023/12/11 07:54:13;;;;;;;;;;;12.40;83.60;;;;;;4953973;28;20020;-79
2023/12/11 07:56:40;;;;;;;;;;;12.40;83.60;;;;;;4953382;28;19914;-81
2023/12/11 07:59:06;;;;;;;;;;;12.40;83.60;;;;;;4953699;28;19914;-79
2023/12/11 08:01:32;;;;;;;;;;;12.40;83.60;;;;;;4954484;28;20526;-82
2023/12/11 08:03:58;;;;;;;;;;;12.40;83.60;;;;;;4954026;28;19921;-80
2023/12/11 08:06:25;;;;;;;;;;;12.30;83.50;;;;;;4971694;28;19914;-81
2023/12/11 08:08:51;;;;;;;;;;;12.30;83.60;;;;;;4953513;28;20371;-81
2023/12/11 08:11:29;;;;;;;;;;;12.40;83.60;;;;;;4954151;28;20503;-82
2023/12/11 08:13:55;;;;;;;;;;;12.40;84.70;;;;;;4973913;28;20359;-79
2023/12/11 08:16:21;;;;;;;;;;;12.40;83.80;;;;;;4957218;28;19910;-81
2023/12/11 08:18:48;;;;;;;;;;;12.40;83.40;;;;;;4973947;28;19994;-81
2023/12/11 08:21:19;;;;;;;;;;;12.40;83.50;;;;;;4957048;28;19910;-81
2023/12/11 08:23:47;;;;;;;;;;;12.40;83.80;;;;;;4957796;28;20375;-80
2023/12/11 08:26:20;;;;;;;;;;;12.40;84.10;;;;;;4957570;28;20685;-80
2023/12/11 08:28:46;;;;;;;;;;;12.40;83.90;;;;;;4956874;28;19929;-81
2023/12/11 08:31:13;;;;;;;;;;;12.50;84.00;;;;;;4957328;28;19929;-81
2023/12/11 08:33:48;;;;;;;;;;;12.50;84.00;;;;;;4973731;28;19914;-80
2023/12/11 08:36:16;;;;;;;;;;;12.50;83.90;;;;;;4975083;28;19913;-81
2023/12/11 08:38:57;;;;;;;;;;;12.60;84.00;;;;;;4957037;28;20363;-81
2023/12/11 08:41:23;;;;;;;;;;;12.60;84.00;;;;;;4972133;28;19909;-81
2023/12/11 08:43:49;;;;;;;;;;;12.60;84.60;;;;;;4966752;28;20363;-80
2023/12/11 08:46:15;;;;;;;;;;;12.70;84.90;;;;;;4973764;28;19960;-81
2023/12/11 08:48:42;;;;;;;;;;;12.70;85.00;;;;;;4956194;28;19956;-81
2023/12/11 08:51:08;;;;;;;;;;;12.80;85.20;;;;;;4956392;28;19914;-80
2023/12/11 08:53:33;;;;;;;;;;;12.80;85.50;;;;;;4956171;28;19932;-79
2023/12/11 08:55:59;;;;;;;;;;;12.90;85.80;;;;;;4956369;28;20450;-80
2023/12/11 08:58:24;;;;;;;;;;;13.00;86.70;;;;;;4956527;28;20291;-81
2023/12/11 09:00:50;;;;;;;;;;;13.10;86.90;;;;;;4956761;28;19917;-81
2023/12/11 09:03:15;;;;;;;;;;;13.10;86.80;;;;;;4956513;28;19914;-81
2023/12/11 09:05:41;;;;;;;;;;;13.20;86.50;;;;;;4956467;28;19917;-80
2023/12/11 09:08:06;;;;;;;;;;;13.20;86.30;;;;;;4956432;28;19912;-81
2023/12/11 09:10:32;;;;;;;;;;;13.20;86.20;;;;;;4956382;28;20128;-80
2023/12/11 09:12:57;;;;;;;;;;;13.30;86.40;;;;;;4956160;28;20009;-81
2023/12/11 09:15:23;;;;;;;;;;;13.40;86.30;;;;;;4956116;28;19956;-80
2023/12/11 09:17:48;;;;;;;;;;;13.40;86.20;;;;;;4955875;28;19921;-80
2023/12/11 09:20:13;;;;;;;;;;;13.50;86.30;;;;;;4956119;28;19918;-81
2023/12/11 09:22:40;;;;;;;;;;;13.60;86.30;;;;;;4956031;28;19902;-79
2023/12/11 09:25:06;;;;;;;;;;;13.60;86.20;;;;;;4955720;28;19906;-80
2023/12/11 09:27:32;;;;;;;;;;;13.60;86.20;;;;;;4956055;28;19909;-80
2023/12/11 09:29:57;;;;;;;;;;;13.70;86.20;;;;;;4955913;28;20391;-80
2023/12/11 09:32:22;;;;;;;;;;;13.70;85.90;;;;;;4956005;28;20358;-79
2023/12/11 09:34:48;;;;;;;;;;;13.70;86.00;;;;;;4955473;28;20359;-80
2023/12/11 09:37:15;;;;;;;;;;;13.60;85.80;;;;;;4955383;28;19932;-80
2023/12/11 09:39:41;;;;;;;;;;;13.60;85.90;;;;;;4955256;28;20660;-81
2023/12/11 09:42:07;;;;;;;;;;;13.50;85.90;;;;;;4955180;28;19910;-79
2023/12/11 09:44:34;;;;;;;;;;;13.50;86.00;;;;;;4956013;28;20248;-81
2023/12/11 09:47:23;;;;;;;;;;;13.40;86.00;;;;;;4955340;28;19964;-80
2023/12/11 09:49:48;;;;;;;;;;;13.40;86.00;;;;;;4949589;28;19917;-79
2023/12/11 09:52:13;;;;;;;;;;;13.30;86.00;;;;;;4955740;28;19906;-80
2023/12/11 09:54:39;;;;;;;;;;;13.30;86.00;;;;;;4972895;28;19914;-79
2023/12/11 09:57:06;;;;;;;;;;;13.30;85.90;;;;;;4972858;28;20060;-80
2023/12/11 09:59:32;;;;;;;;;;;13.30;85.90;;;;;;4955195;28;19914;-80
2023/12/11 10:01:57;;;;;;;;;;;13.30;86.40;;;;;;4955505;28;19906;-81
2023/12/11 10:04:23;;;;;;;;;;;13.10;85.70;;;;;;4955115;28;19920;-79
2023/12/11 10:06:50;;;;;;;;;;;13.20;85.70;;;;;;4955265;28;19913;-81
2023/12/11 10:09:28;;;;;;;;;;;13.20;85.70;;;;;;4954809;28;19906;-80
2023/12/11 10:11:57;;;;;;;;;;;13.20;85.50;;;;;;4954704;28;19910;-80
2023/12/11 10:14:23;;;;;;;;;;;13.20;85.60;;;;;;4955003;28;19914;-80
2023/12/11 10:16:48;;;;;;;;;;;13.20;85.60;;;;;;4954862;28;19921;-80
2023/12/11 10:19:14;;;;;;;;;;;13.20;85.50;;;;;;4957279;28;19916;-81
2023/12/11 10:21:39;;;;;;;;;;;13.20;85.60;;;;;;4958370;28;20008;-81
2023/12/11 10:24:06;;;;;;;;;;;13.20;85.40;;;;;;4958506;28;19961;-80
2023/12/11 10:26:32;;;;;;;;;;;13.20;85.20;;;;;;4958407;28;19906;-80
2023/12/11 10:29:15;;;;;;;;;;;13.20;85.00;;;;;;4957893;28;19906;-82
2023/12/11 10:31:40;;;;;;;;;;;13.20;84.90;;;;;;4975732;28;19960;-79
2023/12/11 10:34:06;;;;;;;;;;;13.20;84.70;;;;;;4958118;28;19910;-81
2023/12/11 10:36:31;;;;;;;;;;;13.20;84.60;;;;;;4957277;28;19910;-81
2023/12/11 10:39:06;;;;;;;;;;;13.10;84.60;;;;;;4975001;28;19910;-80
2023/12/11 10:41:32;;;;;;;;;;;13.20;84.60;;;;;;4957818;28;19906;-80
2023/12/11 10:43:58;;;;;;;;;;;13.10;84.60;;;;;;4957729;28;19914;-81
2023/12/11 10:46:24;;;;;;;;;;;13.10;84.60;;;;;;4957861;28;19913;-81
2023/12/11 10:48:49;;;;;;;;;;;13.10;84.70;;;;;;4957814;28;19906;-82
2023/12/11 10:51:15;;;;;;;;;;;13.10;84.70;;;;;;4957646;28;19910;-81
2023/12/11 10:53:40;;;;;;;;;;;13.10;84.80;;;;;;4954895;28;19910;-82
2023/12/11 10:56:06;;;;;;;;;;;13.00;84.80;;;;;;4954409;29;20391;-82
2023/12/11 10:58:32;;;;;;;;;;;13.10;84.80;;;;;;4938298;29;19907;-81
2023/12/11 11:00:59;;;;;;;;;;;13.10;84.80;;;;;;4938334;28;19913;-80
2023/12/11 11:03:25;;;;;;;;;;;13.00;84.80;;;;;;4938449;29;19962;-81
2023/12/11 11:05:51;;;;;;;;;;;13.00;84.80;;;;;;4955461;29;20315;-82
2023/12/11 11:08:22;;;;;;;;;;;12.90;84.70;;;;;;4954053;29;20009;-80
2023/12/11 11:11:07;;;;;;;;;;;13.00;84.80;;;;;;4937420;29;19906;-78
2023/12/11 11:13:38;;;;;;;;;;;13.00;84.80;;;;;;4937879;29;20351;-77
2023/12/11 11:16:03;;;;;;;;;;;13.00;84.90;;;;;;4954270;29;19910;-77
2023/12/11 11:18:29;;;;;;;;;;;13.00;84.80;;;;;;4937934;29;19916;-79
2023/12/11 11:21:08;;;;;;;;;;;12.90;84.80;;;;;;4937930;28;19949;-78
2023/12/11 11:23:42;;;;;;;;;;;12.90;84.90;;;;;;4955213;29;19913;-79
2023/12/11 11:26:26;;;;;;;;;;;12.90;85.00;;;;;;4954115;29;19934;-77
2023/12/11 11:28:51;;;;;;;;;;;12.90;85.00;;;;;;4954140;29;20359;-78
2023/12/11 11:31:17;;;;;;;;;;;12.90;85.00;;;;;;4937903;28;19913;-78
2023/12/11 11:33:50;;;;;;;;;;;12.90;85.10;;;;;;4953917;29;19913;-78
2023/12/11 11:36:20;;;;;;;;;;;12.80;85.00;;;;;;4953891;29;19981;-78
2023/12/11 11:38:56;;;;;;;;;;;12.80;85.10;;;;;;4953262;29;19991;-79
2023/12/11 11:41:22;;;;;;;;;;;12.80;85.10;;;;;;4953838;28;20001;-77
2023/12/11 11:43:59;;;;;;;;;;;12.80;85.10;;;;;;4937770;29;19906;-77
2023/12/11 11:46:25;;;;;;;;;;;12.80;85.10;;;;;;4953291;29;19910;-78
2023/12/11 11:48:51;;;;;;;;;;;12.80;85.10;;;;;;4953494;29;19929;-78
2023/12/11 11:51:17;;;;;;;;;;;12.80;85.10;;;;;;4954712;28;19917;-78
2023/12/11 11:53:44;;;;;;;;;;;12.80;85.10;;;;;;4937654;29;19914;-78
2023/12/11 11:56:09;;;;;;;;;;;12.80;85.10;;;;;;4954776;29;19918;-77
2023/12/11 11:58:35;;;;;;;;;;;12.80;85.10;;;;;;4937380;29;19917;-78
2023/12/11 12:01:04;;;;;;;;;;;12.80;85.10;;;;;;4937578;28;20002;-79
2023/12/11 12:03:42;;;;;;;;;;;12.80;85.10;;;;;;4937340;29;19910;-78
2023/12/11 12:06:08;;;;;;;;;;;12.80;85.10;;;;;;4937253;29;19977;-81
2023/12/11 12:08:36;;;;;;;;;;;12.80;85.10;;;;;;4937330;29;19914;-82
2023/12/11 12:11:04;;;;;;;;;;;12.80;85.10;;;;;;4937441;28;20005;-81
2023/12/11 12:13:33;;;;;;;;;;;12.80;85.10;;;;;;4937435;29;19907;-82
2023/12/11 12:15:59;;;;;;;;;;;12.70;85.10;;;;;;4937377;29;19982;-80
2023/12/11 12:18:24;;;;;;;;;;;12.70;85.10;;;;;;4937166;29;19993;-81
2023/12/11 12:21:03;;;;;;;;;;;12.70;85.10;;;;;;4937461;29;20375;-80
2023/12/11 12:23:28;;;;;;;;;;;12.70;85.10;;;;;;4937514;29;19942;-80
2023/12/11 12:25:57;;;;;;;;;;;12.70;85.10;;;;;;4937401;29;19907;-81
2023/12/11 12:28:23;;;;;;;;;;;12.70;85.20;;;;;;4954259;29;19906;-81
2023/12/11 12:30:49;;;;;;;;;;;12.70;85.20;;;;;;4937354;29;19994;-82
2023/12/11 12:33:14;;;;;;;;;;;12.70;85.20;;;;;;4954451;28;19906;-81
2023/12/11 12:35:40;;;;;;;;;;;12.70;85.20;;;;;;4937186;29;20367;-81
2023/12/11 12:38:07;;;;;;;;;;;12.80;85.30;;;;;;4954937;29;20383;-82
2023/12/11 12:40:33;;;;;;;;;;;12.70;85.20;;;;;;4937077;29;20367;-82
2023/12/11 12:43:00;;;;;;;;;;;12.70;85.20;;;;;;4937019;29;19910;-81
2023/12/11 12:45:26;;;;;;;;;;;12.70;85.20;;;;;;4937185;29;19917;-81
2023/12/11 12:47:52;;;;;;;;;;;12.70;85.20;;;;;;4937213;29;19907;-81
2023/12/11 12:50:24;;;;;;;;;;;12.70;85.20;;;;;;4937077;29;20432;-81
2023/12/11 12:52:50;;;;;;;;;;;12.70;85.20;;;;;;4937365;29;19906;-81
2023/12/11 12:55:15;;;;;;;;;;;12.70;85.20;;;;;;4937057;29;20002;-80
2023/12/11 12:57:43;;;;;;;;;;;12.70;85.20;;;;;;4953013;28;19961;-81
2023/12/11 13:00:17;;;;;;;;;;;12.70;85.20;;;;;;4939739;29;19910;-81
2023/12/11 13:02:45;;;;;;;;;;;12.70;85.10;;;;;;4940421;29;19913;-81
2023/12/11 13:05:11;;;;;;;;;;;12.70;85.20;;;;;;4940361;29;19906;-81
2023/12/11 13:07:37;;;;;;;;;;;12.70;85.20;;;;;;4940485;29;19907;-81
2023/12/11 13:10:10;;;;;;;;;;;12.70;85.20;;;;;;4940164;29;20124;-82
2023/12/11 13:12:35;;;;;;;;;;;12.70;85.20;;;;;;4940366;29;20374;-80
2023/12/11 13:15:01;;;;;;;;;;;12.70;85.20;;;;;;4940344;29;19957;-82
2023/12/11 13:17:26;;;;;;;;;;;12.70;85.10;;;;;;4940264;29;20679;-81
2023/12/11 13:19:53;;;;;;;;;;;12.70;85.10;;;;;;4957262;29;19997;-81
2023/12/11 13:22:19;;;;;;;;;;;12.70;85.10;;;;;;4940704;29;20255;-82
2023/12/11 13:24:55;;;;;;;;;;;12.70;85.10;;;;;;4956315;29;19930;-82
2023/12/11 13:27:25;;;;;;;;;;;12.70;85.10;;;;;;4957141;29;19910;-82
2023/12/11 13:30:13;;;;;;;;;;;12.70;85.10;;;;;;4939650;29;19910;-81
2023/12/11 13:32:42;;;;;;;;;;;12.70;85.10;;;;;;4936511;29;19997;-82
2023/12/11 13:35:09;;;;;;;;;;;12.70;85.20;;;;;;4955859;29;19906;-82
2023/12/11 13:37:38;;;;;;;;;;;12.60;85.10;;;;;;4940057;29;19906;-82
2023/12/11 13:40:13;;;;;;;;;;;12.70;85.10;;;;;;4955651;29;19914;-82
2023/12/11 13:43:05;;;;;;;;;;;12.70;85.10;;;;;;4957179;28;19907;-82
2023/12/11 13:45:39;;;;;;;;;;;12.70;85.20;;;;;;4939121;29;19906;-81
2023/12/11 13:48:18;;;;;;;;;;;12.70;85.10;;;;;;4955959;29;19906;-83
2023/12/11 13:50:52;;;;;;;;;;;12.60;85.10;;;;;;4955173;29;19910;-77
2023/12/11 13:53:18;;;;;;;;;;;12.60;85.10;;;;;;4953654;28;19964;-78
2023/12/11 13:55:44;;;;;;;;;;;12.70;85.20;;;;;;4956977;28;19939;-78
2023/12/11 13:58:09;;;;;;;;;;;12.70;85.20;;;;;;4958039;28;20795;-82
2023/12/11 14:00:35;;;;;;;;;;;12.70;85.20;;;;;;4956083;28;19925;-81
2023/12/11 14:03:01;;;;;;;;;;;12.60;85.10;;;;;;4936840;28;19910;-82
2023/12/11 14:05:26;;;;;;;;;;;12.70;85.20;;;;;;4958565;28;19906;-82
2023/12/11 14:07:53;;;;;;;;;;;12.60;85.10;;;;;;4958436;28;20052;-82
2023/12/11 14:10:19;;;;;;;;;;;12.60;85.10;;;;;;4958126;28;19910;-81
2023/12/11 14:12:44;;;;;;;;;;;12.60;85.10;;;;;;4958338;28;20394;-82
2023/12/11 14:15:09;;;;;;;;;;;12.70;85.20;;;;;;4958247;28;19910;-82
2023/12/11 14:17:38;;;;;;;;;;;12.60;85.20;;;;;;4958267;28;20260;-82
2023/12/11 14:20:06;;;;;;;;;;;12.60;85.10;;;;;;4975018;28;20650;-81
2023/12/11 14:22:36;;;;;;;;;;;12.60;85.20;;;;;;4975217;28;20004;-82
2023/12/11 14:25:02;;;;;;;;;;;12.60;85.20;;;;;;4958011;28;19906;-81
2023/12/11 14:27:29;;;;;;;;;;;12.60;85.20;;;;;;4958235;28;20371;-81
2023/12/11 14:30:01;;;;;;;;;;;12.60;85.10;;;;;;4957882;28;19914;-82
2023/12/11 14:32:29;;;;;;;;;;;12.60;85.20;;;;;;4957675;28;19906;-82
2023/12/11 14:35:00;;;;;;;;;;;12.60;85.20;;;;;;4958018;28;20397;-82
2023/12/11 14:38:06;;;;;;;;;;;12.60;85.10;;;;;;4973250;28;19910;-82
2023/12/11 14:40:45;;;;;;;;;;;12.60;85.10;;;;;;4949804;28;19944;-82
2023/12/11 14:43:23;;;;;;;;;;;12.60;85.20;;;;;;4945157;28;19906;-82
2023/12/11 14:45:54;;;;;;;;;;;12.60;85.20;;;;;;4975006;28;20271;-82
2023/12/11 14:48:31;;;;;;;;;;;12.70;85.20;;;;;;4957345;28;19916;-82
2023/12/11 14:51:11;;;;;;;;;;;12.60;85.20;;;;;;4971242;28;19906;-82
2023/12/11 14:53:36;;;;;;;;;;;12.60;85.20;;;;;;4957493;28;19985;-83
2023/12/11 14:56:05;;;;;;;;;;;12.60;85.20;;;;;;4957546;28;20370;-81
2023/12/11 14:58:38;;;;;;;;;;;12.60;85.20;;;;;;4974667;28;19906;-82
2023/12/11 15:01:05;;;;;;;;;;;12.60;85.20;;;;;;4957554;28;20375;-82
2023/12/11 15:03:43;;;;;;;;;;;12.60;85.20;;;;;;4958563;28;19910;-82
2023/12/11 15:06:36;;;;;;;;;;;12.60;85.20;;;;;;4957691;28;20396;-82
2023/12/11 15:09:14;;;;;;;;;;;12.60;85.20;;;;;;4957351;28;19984;-82
2023/12/11 15:12:03;;;;;;;;;;;12.60;85.20;;;;;;4974555;28;19906;-81
2023/12/11 15:14:33;;;;;;;;;;;12.60;85.20;;;;;;4957165;28;19953;-82
2023/12/11 15:17:06;;;;;;;;;;;12.60;85.20;;;;;;4974295;28;20278;-82
2023/12/11 15:19:40;;;;;;;;;;;12.60;85.20;;;;;;4957146;28;20004;-82
2023/12/11 15:22:16;;;;;;;;;;;12.60;85.30;;;;;;4940969;28;19910;-82
2023/12/11 15:24:47;;;;;;;;;;;12.60;85.30;;;;;;4957332;28;19906;-83
2023/12/11 15:27:44;;;;;;;;;;;12.60;85.20;;;;;;4974702;28;19917;-82